createdAt,value
2018-02-15T00:02:24.166Z,51.51
2018-02-15T00:04:50.833Z,51.70
2018-02-15T00:07:17.460Z,51.44
2018-02-15T00:09:44.096Z,52.18
2018-02-15T00:12:10.719Z,51.99
2018-02-15T00:14:37.343Z,51.44
2018-02-15T00:17:03.940Z,50.90
2018-02-15T00:19:30.582Z,51.30
2018-02-15T00:21:57.195Z,51.38
2018-02-15T00:24:23.781Z,51.75
2018-02-15T00:26:50.377Z,52.22
2018-02-15T00:29:17.047Z,52.20
2018-02-15T00:31:43.647Z,52.51
2018-02-15T00:34:10.267Z,52.91
2018-02-15T00:36:36.846Z,52.13
2018-02-15T00:39:03.516Z,52.82
2018-02-15T00:41:30.167Z,52.64
2018-02-15T00:43:57.487Z,52.02
2018-02-15T00:46:24.122Z,52.03
2018-02-15T00:48:50.736Z,52.43
2018-02-15T01:04:17.170Z,53.75
2018-02-15T01:06:43.799Z,54.04
2018-02-15T01:09:10.394Z,54.41
2018-02-15T01:11:36.987Z,54.66
2018-02-15T01:14:03.553Z,54.96
2018-02-15T01:16:31.079Z,55.14
2018-02-15T01:18:57.700Z,54.85
2018-02-15T01:21:24.281Z,54.63
2018-02-15T01:23:50.883Z,55.42
2018-02-15T01:26:18.071Z,55.88
2018-02-15T01:28:44.691Z,56.64
2018-02-15T01:31:12.045Z,56.83
2018-02-15T01:33:39.398Z,56.50
2018-02-15T01:36:06.754Z,56.34
2018-02-15T01:38:33.361Z,55.92
2018-02-15T01:40:59.965Z,56.55
2018-02-15T01:43:26.547Z,55.81
2018-02-15T01:45:53.895Z,55.76
2018-02-15T01:48:20.545Z,55.42
2018-02-15T01:50:47.163Z,55.05
2018-02-15T01:53:13.773Z,55.02
2018-02-15T01:55:40.359Z,55.72
2018-02-15T01:58:06.917Z,55.06
2018-02-15T02:00:33.531Z,55.07
2018-02-15T02:03:00.918Z,56.14
2018-02-15T02:05:28.218Z,56.94
2018-02-15T02:07:54.830Z,56.06
2018-02-15T02:10:21.401Z,55.64
2018-02-15T02:12:48.010Z,54.17
2018-02-15T02:15:14.607Z,53.62
2018-02-15T02:17:41.310Z,53.11
2018-02-15T02:20:07.908Z,53.40
2018-02-15T02:22:34.518Z,53.38
2018-02-15T02:25:01.850Z,52.99
2018-02-15T02:27:29.171Z,53.39
2018-02-15T02:29:55.759Z,53.21
2018-02-15T02:32:22.333Z,51.64
2018-02-15T02:34:48.905Z,51.14
2018-02-15T02:37:15.504Z,51.19
2018-02-15T02:39:42.866Z,50.96
2018-02-15T02:42:09.598Z,49.54
2018-02-15T02:44:36.226Z,49.16
2018-02-15T02:47:02.797Z,48.83
2018-02-15T02:49:29.435Z,48.46
2018-02-15T02:51:56.529Z,48.46
2018-02-15T02:54:23.123Z,47.95
2018-02-15T02:56:49.676Z,47.48
2018-02-15T02:59:16.269Z,46.55
2018-02-15T03:01:42.856Z,45.84
2018-02-15T03:04:09.461Z,45.82
2018-02-15T03:06:36.062Z,44.85
2018-02-15T03:09:02.770Z,45.58
2018-02-15T03:11:30.137Z,45.79
2018-02-15T03:13:56.725Z,44.87
2018-02-15T03:16:23.335Z,44.79
2018-02-15T03:18:49.924Z,45.53
2018-02-15T03:21:16.529Z,46.12
2018-02-15T03:23:43.129Z,45.67
2018-02-15T03:26:10.545Z,45.31
2018-02-15T03:28:37.895Z,45.17
2018-02-15T03:31:04.547Z,44.67
2018-02-15T03:33:31.115Z,44.78
2018-02-15T03:35:58.449Z,44.92
2018-02-15T03:38:25.772Z,45.00
2018-02-15T03:40:52.386Z,45.80
2018-02-15T03:43:18.974Z,48.18
2018-02-15T03:45:45.586Z,49.11
2018-02-15T03:48:12.166Z,50.82
2018-02-15T03:50:38.786Z,50.31
2018-02-15T03:53:05.375Z,51.96
2018-02-15T03:55:31.961Z,52.60
2018-02-15T03:57:59.291Z,52.99
2018-02-15T04:00:25.899Z,53.54
2018-02-15T04:02:52.485Z,53.86
2018-02-15T04:05:19.093Z,53.71
2018-02-15T04:07:45.641Z,53.67
2018-02-15T04:10:12.212Z,54.44
2018-02-15T04:12:39.540Z,54.21
2018-02-15T04:15:06.134Z,54.24
2018-02-15T04:17:32.710Z,54.60
2018-02-15T04:19:59.275Z,54.91
2018-02-15T04:22:26.629Z,54.93
2018-02-15T04:24:53.946Z,54.79
2018-02-15T04:27:20.573Z,54.70
2018-02-15T04:29:47.163Z,54.18
2018-02-15T04:32:13.755Z,53.52
2018-02-15T04:34:40.396Z,53.77
2018-02-15T04:37:06.967Z,53.34
2018-02-15T04:39:34.298Z,53.19
2018-02-15T04:42:01.625Z,53.09
2018-02-15T04:44:28.210Z,53.27
2018-02-15T04:46:55.544Z,53.24
2018-02-15T04:49:22.177Z,53.27
2018-02-15T04:51:48.881Z,53.43
2018-02-15T04:54:15.485Z,53.66
2018-02-15T04:56:42.068Z,52.45
2018-02-15T04:59:08.647Z,51.92
2018-02-15T05:01:35.277Z,50.09
2018-02-15T05:04:02.673Z,49.70
2018-02-15T05:06:29.251Z,49.65
2018-02-15T05:08:55.983Z,49.85
2018-02-15T05:11:22.551Z,50.07
2018-02-15T05:13:49.136Z,50.86
2018-02-15T05:16:15.706Z,50.76
2018-02-15T05:18:42.297Z,50.74
2018-02-15T05:21:08.887Z,52.02
2018-02-15T05:23:35.512Z,50.73
2018-02-15T05:26:02.067Z,50.81
2018-02-15T05:28:29.411Z,51.94
2018-02-15T05:30:56.739Z,50.39
2018-02-15T05:33:23.324Z,51.83
2018-02-15T05:35:49.918Z,51.32
2018-02-15T05:38:17.310Z,52.33
2018-02-15T05:40:43.945Z,53.84
2018-02-15T05:43:10.557Z,53.85
2018-02-15T05:45:37.890Z,54.32
2018-02-15T05:48:04.470Z,54.67
2018-02-15T05:50:31.082Z,54.68
2018-02-15T05:52:57.677Z,55.45
2018-02-15T05:55:24.277Z,55.60
2018-02-15T05:57:51.611Z,55.76
2018-02-15T06:00:18.230Z,55.63
2018-02-15T06:02:44.802Z,55.39
2018-02-15T06:05:12.151Z,54.57
2018-02-15T06:07:38.739Z,55.21
2018-02-15T06:10:05.927Z,55.40
2018-02-15T06:12:32.542Z,55.54
2018-02-15T06:14:59.404Z,55.56
2018-02-15T06:17:26.021Z,55.61
2018-02-15T06:19:52.615Z,55.82
2018-02-15T06:22:20.175Z,55.78
2018-02-15T06:24:46.808Z,56.10
2018-02-15T06:27:13.436Z,56.73
2018-02-15T06:29:41.097Z,57.28
2018-02-15T06:32:08.431Z,58.49
2018-02-15T06:34:35.041Z,59.50
2018-02-15T06:37:02.420Z,60.71
2018-02-15T06:39:29.042Z,61.36
2018-02-15T06:41:55.644Z,61.56
2018-02-15T06:44:22.302Z,62.73
2018-02-15T06:46:48.918Z,63.20
2018-02-15T06:49:15.588Z,64.31
2018-02-15T06:51:42.219Z,65.86
2018-02-15T06:54:08.842Z,67.21
2018-02-15T06:56:35.476Z,68.23
2018-02-15T06:59:02.075Z,68.76
2018-02-15T07:01:29.438Z,69.67
2018-02-15T07:03:56.804Z,70.41
2018-02-15T07:06:23.412Z,70.60
2018-02-15T07:08:50.031Z,71.98
2018-02-15T07:11:16.709Z,73.29
2018-02-15T07:13:43.311Z,74.17
2018-02-15T07:16:09.921Z,74.19
2018-02-15T07:18:36.523Z,74.72
2018-02-15T07:21:03.166Z,75.15
2018-02-15T07:23:29.757Z,75.69
2018-02-15T07:25:56.419Z,75.08
2018-02-15T07:28:23.874Z,75.64
2018-02-15T07:30:51.230Z,75.92
2018-02-15T07:33:18.599Z,76.36
2018-02-15T07:35:45.207Z,76.96
2018-02-15T07:38:11.946Z,77.05
2018-02-15T07:40:39.323Z,76.58
2018-02-15T07:43:06.666Z,76.85
2018-02-15T07:45:34.018Z,77.21
2018-02-15T07:48:01.420Z,76.96
2018-02-15T07:50:28.107Z,77.30
2018-02-15T07:52:55.512Z,77.18
2018-02-15T07:55:22.152Z,77.32
2018-02-15T07:57:48.768Z,77.46
2018-02-15T08:00:15.407Z,77.57
2018-02-15T08:02:42.015Z,77.88
2018-02-15T08:05:08.677Z,77.87
2018-02-15T08:07:36.051Z,78.03
2018-02-15T08:10:02.694Z,78.69
2018-02-15T08:12:29.345Z,79.58
2018-02-15T08:14:55.978Z,80.49
2018-02-15T08:17:22.592Z,80.83
2018-02-15T08:19:49.215Z,81.32
2018-02-15T08:22:15.830Z,80.63
2018-02-15T08:24:42.504Z,80.99
2018-02-15T08:27:09.126Z,80.34
2018-02-15T08:29:36.479Z,80.18
2018-02-15T08:32:03.906Z,80.31
2018-02-15T08:34:30.504Z,80.25
2018-02-15T08:36:57.118Z,79.93
2018-02-15T08:39:24.575Z,80.31
2018-02-15T08:41:51.537Z,79.99
2018-02-15T08:44:25.271Z,80.27
2018-02-15T08:46:57.558Z,79.96
2018-02-15T08:49:24.172Z,79.85
2018-02-15T08:51:50.815Z,79.56
2018-02-15T08:54:17.408Z,79.52
2018-02-15T08:56:44.059Z,79.22
2018-02-15T08:59:10.707Z,79.44
2018-02-15T09:01:37.359Z,78.82
2018-02-15T09:04:03.999Z,78.77
2018-02-15T09:06:31.055Z,78.52
2018-02-15T09:08:57.692Z,78.64
2018-02-15T09:11:24.314Z,78.50
2018-02-15T09:13:50.993Z,78.07
2018-02-15T09:16:18.415Z,78.45
2018-02-15T09:18:45.106Z,78.31
2018-02-15T09:21:11.767Z,78.28
2018-02-15T09:23:38.422Z,78.27
2018-02-15T09:26:05.056Z,78.10
2018-02-15T09:28:31.734Z,77.67
2018-02-15T09:30:58.376Z,78.11
2018-02-15T09:33:25.804Z,77.94
2018-02-15T09:35:52.445Z,78.11
2018-02-15T09:38:19.110Z,77.39
2018-02-15T09:40:46.454Z,77.32
2018-02-15T09:43:13.103Z,77.49
2018-02-15T09:45:39.732Z,77.52
2018-02-15T09:48:06.444Z,77.73
2018-02-15T09:50:33.069Z,77.47
2018-02-15T09:52:59.731Z,77.37
2018-02-15T09:55:27.099Z,77.47
2018-02-15T09:57:53.818Z,77.51
2018-02-15T10:00:20.443Z,77.43
2018-02-15T10:02:47.121Z,76.69
2018-02-15T10:05:13.800Z,76.67
2018-02-15T10:07:40.438Z,76.40
2018-02-15T10:10:07.102Z,76.14
2018-02-15T10:12:33.776Z,75.84
2018-02-15T10:15:00.439Z,76.14
2018-02-15T10:17:27.073Z,76.13
2018-02-15T10:19:53.737Z,77.01
2018-02-15T10:22:20.374Z,76.57
2018-02-15T10:24:47.027Z,76.00
2018-02-15T10:27:13.690Z,75.73
2018-02-15T10:29:40.339Z,75.66
2018-02-15T10:32:07.732Z,76.26
2018-02-15T10:34:34.436Z,75.53
2018-02-15T10:37:01.109Z,75.68
2018-02-15T10:39:27.737Z,75.16
2018-02-15T10:41:54.339Z,74.96
2018-02-15T10:44:21.003Z,75.01
2018-02-15T10:46:47.645Z,75.16
2018-02-15T10:49:15.003Z,75.06
2018-02-15T10:51:41.647Z,75.07
2018-02-15T10:54:08.271Z,74.79
2018-02-15T10:56:34.896Z,75.13
2018-02-15T10:59:01.552Z,75.14
2018-02-15T11:01:34.311Z,75.11
2018-02-15T11:04:03.619Z,75.12
2018-02-15T11:06:30.973Z,74.93
2018-02-15T11:08:58.344Z,75.23
2018-02-15T11:11:25.008Z,74.88
2018-02-15T11:13:51.745Z,74.97
2018-02-15T11:16:18.274Z,75.02
2018-02-15T11:18:44.946Z,75.53
2018-02-15T11:21:11.574Z,76.16
2018-02-15T11:23:38.175Z,76.17
2018-02-15T11:26:04.815Z,76.25
2018-02-15T11:28:31.422Z,76.19
2018-02-15T11:30:58.075Z,75.94
2018-02-15T11:33:25.708Z,76.55
2018-02-15T11:35:52.310Z,76.73
2018-02-15T11:38:18.926Z,77.15
2018-02-15T11:40:45.571Z,77.13
2018-02-15T11:43:12.216Z,77.41
2018-02-15T11:45:38.854Z,76.94
2018-02-15T11:48:05.450Z,76.75
2018-02-15T11:50:32.822Z,76.13
2018-02-15T11:52:59.436Z,76.70
2018-02-15T11:55:26.080Z,76.78
2018-02-15T11:57:52.846Z,77.54
2018-02-15T12:00:19.464Z,77.10
2018-02-15T12:02:46.863Z,77.13
2018-02-15T12:05:13.522Z,76.98
2018-02-15T12:07:40.132Z,77.15
2018-02-15T12:10:06.806Z,77.22
2018-02-15T12:12:33.471Z,77.55
2018-02-15T12:15:00.168Z,77.27
2018-02-15T12:17:26.763Z,77.30
2018-02-15T12:19:53.406Z,77.19
2018-02-15T12:22:20.008Z,76.96
2018-02-15T12:24:46.655Z,77.14
2018-02-15T12:27:14.026Z,77.23
2018-02-15T12:29:41.412Z,77.33
2018-02-15T12:32:08.060Z,77.43
2018-02-15T12:34:34.699Z,77.39
2018-02-15T12:49:57.382Z,76.90
2018-02-15T12:52:24.029Z,77.03
2018-02-15T12:54:50.686Z,76.84
2018-02-15T12:57:17.312Z,76.95
2018-02-15T12:59:44.330Z,76.78
2018-02-15T13:02:11.769Z,76.81
2018-02-15T13:04:39.080Z,77.13
2018-02-15T13:07:05.754Z,77.67
2018-02-15T13:09:32.410Z,77.77
2018-02-15T13:11:59.770Z,78.23
2018-02-15T13:14:26.500Z,77.97
2018-02-15T13:16:56.655Z,78.20
2018-02-15T13:19:41.745Z,78.54
2018-02-15T13:22:27.463Z,78.59
2018-02-15T13:24:54.028Z,78.57
2018-02-15T13:40:54.136Z,78.76
2018-02-15T13:43:20.763Z,78.93
2018-02-15T13:45:48.134Z,78.38
2018-02-15T13:48:14.794Z,78.12
2018-02-15T13:50:41.474Z,78.23
2018-02-15T13:53:08.266Z,78.24
2018-02-15T13:55:34.903Z,78.36
2018-02-15T13:58:01.540Z,78.60
2018-02-15T14:00:28.250Z,78.92
2018-02-15T14:02:55.670Z,79.00
2018-02-15T14:05:22.404Z,78.84
2018-02-15T14:07:49.045Z,78.71
2018-02-15T14:10:15.899Z,78.66
2018-02-15T14:12:42.557Z,78.47
2018-02-15T14:15:09.191Z,78.39
2018-02-15T14:17:35.879Z,78.61
2018-02-15T14:20:02.541Z,78.82
2018-02-15T14:22:29.207Z,79.02
2018-02-15T14:24:56.655Z,79.20
2018-02-15T14:27:23.310Z,79.18
2018-02-15T14:29:53.472Z,79.18
2018-02-15T14:32:20.101Z,79.30
2018-02-15T14:34:46.857Z,79.24
2018-02-15T14:37:13.576Z,79.38
2018-02-15T14:39:40.212Z,79.23
2018-02-15T14:42:06.912Z,79.43
2018-02-15T14:44:33.563Z,79.98
2018-02-15T14:47:00.956Z,80.14
2018-02-15T14:49:27.598Z,80.18
2018-02-15T14:51:54.242Z,80.18
2018-02-15T14:54:20.905Z,79.63
2018-02-15T14:56:47.588Z,79.61
2018-02-15T14:59:14.210Z,79.92
2018-02-15T15:01:41.675Z,80.13
2018-02-15T15:04:09.403Z,80.02
2018-02-15T15:06:36.059Z,80.23
2018-02-15T15:09:02.775Z,80.75
2018-02-15T15:11:30.224Z,80.79
2018-02-15T15:13:56.936Z,80.65
2018-02-15T15:16:23.595Z,80.90
2018-02-15T15:18:50.251Z,80.66
2018-02-15T15:21:16.953Z,80.96
2018-02-15T15:23:43.572Z,81.08
2018-02-15T15:26:10.227Z,81.29
2018-02-15T15:28:36.877Z,81.01
2018-02-15T15:31:03.552Z,81.49
2018-02-15T15:33:30.188Z,81.60
2018-02-15T15:35:56.948Z,81.72
2018-02-15T15:38:24.374Z,81.91
2018-02-15T15:40:51.060Z,82.06
2018-02-15T15:43:17.779Z,82.25
2018-02-15T15:45:45.212Z,82.16
2018-02-15T15:48:11.927Z,82.28
2018-02-15T15:50:38.577Z,82.42
2018-02-15T15:53:05.193Z,82.70
2018-02-15T15:55:31.823Z,82.61
2018-02-15T15:57:58.516Z,83.09
2018-02-15T16:00:25.914Z,83.24
2018-02-15T16:02:52.583Z,83.23
2018-02-15T16:05:19.268Z,83.41
2018-02-15T16:07:46.656Z,83.42
2018-02-15T16:10:13.295Z,83.45
2018-02-15T16:12:40.080Z,83.76
2018-02-15T16:15:07.472Z,83.76
2018-02-15T16:17:34.099Z,84.07
2018-02-15T16:20:00.899Z,84.09
2018-02-15T16:22:27.844Z,84.02
2018-02-15T16:24:55.208Z,84.23
2018-02-15T16:27:21.853Z,84.09
2018-02-15T16:29:48.543Z,84.24
2018-02-15T16:32:15.473Z,84.19
2018-02-15T16:34:42.143Z,84.31
2018-02-15T16:37:08.797Z,84.46
2018-02-15T16:39:35.456Z,84.35
2018-02-15T16:42:02.085Z,84.49
2018-02-15T16:44:28.749Z,84.54
2018-02-15T16:46:55.418Z,84.58
2018-02-15T16:49:22.084Z,84.93
2018-02-15T16:51:48.719Z,84.90
2018-02-15T16:54:16.236Z,85.19
2018-02-15T16:56:42.921Z,85.45
2018-02-15T16:59:09.593Z,85.21
2018-02-15T17:01:36.231Z,85.16
2018-02-15T17:04:03.647Z,85.37
2018-02-15T17:06:30.352Z,85.34
2018-02-15T17:08:57.009Z,85.26
2018-02-15T17:11:23.670Z,85.30
2018-02-15T17:13:50.327Z,85.66
2018-02-15T17:16:17.744Z,85.59
2018-02-15T17:18:44.461Z,85.90
2018-02-15T17:21:11.137Z,85.50
2018-02-15T17:23:37.765Z,85.70
2018-02-15T17:26:04.434Z,85.75
2018-02-15T17:28:31.869Z,85.61
2018-02-15T17:30:58.551Z,85.24
2018-02-15T17:33:25.251Z,85.25
2018-02-15T17:35:51.878Z,85.52
2018-02-15T17:38:18.544Z,85.64
2018-02-15T17:40:45.948Z,85.46
2018-02-15T17:43:12.666Z,85.54
2018-02-15T17:45:39.370Z,85.92
2018-02-15T17:48:06.041Z,85.83
2018-02-15T17:50:32.726Z,85.64
2018-02-15T17:52:59.424Z,85.84
2018-02-15T17:55:26.076Z,85.53
2018-02-15T17:57:52.751Z,85.72
2018-02-15T18:00:19.418Z,85.64
2018-02-15T18:02:46.424Z,85.59
2018-02-15T18:05:14.075Z,85.69
2018-02-15T18:07:40.752Z,85.81
2018-02-15T18:10:08.200Z,85.85
2018-02-15T18:12:34.860Z,85.86
2018-02-15T18:15:01.588Z,86.06
2018-02-15T18:17:28.320Z,86.01
2018-02-15T18:20:07.191Z,86.04
2018-02-15T18:22:35.016Z,85.94
2018-02-15T18:25:02.528Z,86.40
2018-02-15T18:27:29.156Z,86.47
2018-02-15T18:29:55.987Z,86.41
2018-02-15T18:32:22.640Z,86.47
2018-02-15T18:34:49.389Z,86.55
2018-02-15T18:37:16.049Z,86.45
2018-02-15T18:39:42.741Z,86.29
2018-02-15T18:42:09.463Z,86.57
2018-02-15T18:44:36.173Z,86.38
2018-02-15T18:47:02.889Z,86.43
2018-02-15T18:49:29.690Z,86.60
2018-02-15T18:51:56.395Z,86.61
2018-02-15T18:54:23.506Z,86.63
2018-02-15T18:56:50.152Z,86.51
2018-02-15T18:59:16.802Z,86.66
2018-02-15T19:01:43.527Z,86.55
2018-02-15T19:04:10.226Z,86.72
2018-02-15T19:06:36.932Z,86.67
2018-02-15T19:09:03.709Z,86.55
2018-02-15T19:11:30.385Z,86.69
2018-02-15T19:13:57.063Z,86.71
2018-02-15T19:16:24.498Z,86.77
2018-02-15T19:18:51.155Z,86.58
2018-02-15T19:21:17.989Z,86.34
2018-02-15T19:23:45.592Z,86.47
2018-02-15T19:26:12.239Z,86.33
2018-02-15T19:28:38.945Z,86.21
2018-02-15T19:31:06.359Z,86.47
2018-02-15T19:33:33.018Z,86.36
2018-02-15T19:39:18.855Z,86.26
2018-02-15T19:44:47.389Z,86.03
2018-02-15T19:47:14.048Z,86.37
2018-02-15T19:49:40.716Z,86.19
2018-02-15T19:52:07.439Z,86.29
2018-02-15T19:54:34.138Z,86.28
2018-02-15T19:57:00.825Z,86.20
2018-02-15T19:59:27.469Z,86.05
2018-02-15T20:01:54.135Z,86.07
2018-02-15T20:04:20.792Z,86.22
2018-02-15T20:06:47.559Z,86.37
2018-02-15T20:09:14.233Z,86.60
2018-02-15T20:11:40.882Z,86.92
2018-02-15T20:14:07.564Z,86.92
2018-02-15T20:16:34.977Z,87.14
2018-02-15T20:19:02.354Z,87.08
2018-02-15T20:21:29.079Z,87.10
2018-02-15T20:23:55.755Z,87.14
2018-02-15T20:26:28.490Z,87.20
2018-02-15T20:28:55.215Z,87.17
2018-02-15T20:31:21.866Z,87.18
2018-02-15T20:33:49.258Z,87.29
2018-02-15T20:36:15.966Z,87.32
2018-02-15T20:38:49.444Z,87.14
2018-02-15T20:41:16.132Z,87.02
2018-02-15T20:43:42.855Z,87.10
2018-02-15T20:46:09.581Z,87.38
2018-02-15T20:48:36.267Z,87.44
2018-02-15T20:51:09.196Z,87.46
2018-02-15T20:53:42.545Z,87.70
2018-02-15T20:56:09.230Z,87.77
2018-02-15T20:58:36.620Z,87.70
2018-02-15T21:01:03.302Z,87.48
2018-02-15T21:03:29.963Z,87.45
2018-02-15T21:05:56.696Z,87.52
2018-02-15T21:08:23.368Z,87.59
2018-02-15T21:10:50.015Z,87.55
2018-02-15T21:13:16.704Z,87.59
2018-02-15T21:15:44.698Z,87.64
2018-02-15T21:18:11.368Z,87.47
2018-02-15T21:20:38.099Z,87.44
2018-02-15T21:23:05.636Z,87.83
2018-02-15T21:25:32.282Z,87.40
2018-02-15T21:27:59.007Z,87.52
2018-02-15T21:30:26.422Z,87.53
2018-02-15T21:32:53.103Z,87.61
2018-02-15T21:35:19.757Z,87.81
2018-02-15T21:37:46.457Z,88.02
2018-02-15T21:40:13.113Z,88.05
2018-02-15T21:42:40.511Z,88.01
2018-02-15T21:45:07.279Z,88.06
2018-02-15T21:47:33.939Z,88.07
2018-02-15T21:50:01.391Z,88.12
2018-02-15T21:52:28.040Z,88.06
2018-02-15T21:54:55.415Z,88.12
2018-02-15T21:57:22.052Z,87.97
2018-02-15T21:59:48.733Z,87.89
2018-02-15T22:02:15.407Z,87.74
2018-02-15T22:04:42.089Z,87.70
2018-02-15T22:07:08.792Z,87.64
2018-02-15T22:09:35.494Z,87.64
2018-02-15T22:12:02.931Z,87.46
2018-02-15T22:27:25.928Z,87.12
2018-02-15T22:29:52.524Z,87.19
2018-02-15T22:32:19.459Z,87.07
2018-02-15T22:34:46.062Z,87.19
2018-02-15T22:37:12.663Z,87.26
2018-02-15T22:39:39.277Z,87.35
2018-02-15T22:42:05.895Z,87.23
2018-02-15T22:44:32.544Z,87.32
2018-02-15T22:46:59.237Z,87.45
2018-02-15T22:49:26.570Z,87.41
2018-02-15T22:51:53.199Z,87.12
2018-02-15T22:54:19.824Z,87.03
2018-02-15T22:56:46.442Z,87.12
2018-02-15T22:59:13.060Z,87.00
2018-02-15T23:01:40.042Z,86.88
2018-02-15T23:04:06.687Z,86.74
2018-02-15T23:06:34.074Z,86.95
2018-02-15T23:09:00.694Z,86.89
2018-02-15T23:11:29.393Z,86.22
2018-02-15T23:13:56.035Z,86.30
2018-02-15T23:16:22.679Z,86.35
2018-02-15T23:18:49.343Z,86.38
2018-02-15T23:21:15.988Z,86.77
2018-02-15T23:23:42.627Z,86.93
2018-02-15T23:26:09.259Z,87.03
2018-02-15T23:28:35.870Z,87.05
2018-02-15T23:31:02.474Z,86.89
2018-02-15T23:33:29.102Z,86.79
2018-02-15T23:35:55.712Z,86.39
2018-02-15T23:38:22.380Z,86.60
2018-02-15T23:40:48.970Z,86.70
2018-02-15T23:43:15.625Z,86.58
2018-02-15T23:45:42.282Z,86.84
2018-02-15T23:48:08.911Z,87.10
2018-02-15T23:50:35.557Z,87.22
2018-02-15T23:53:02.203Z,86.96
2018-02-15T23:55:30.259Z,86.97
2018-02-15T23:57:56.907Z,86.89
